createdAt,value
2018-06-18T00:03:06.526Z,101507.80
2018-06-18T00:08:01.009Z,101518.73
2018-06-18T00:12:55.593Z,101509.95
2018-06-18T00:17:50.192Z,101511.63
2018-06-18T00:22:44.841Z,101523.78
2018-06-18T00:27:39.818Z,101522.92
2018-06-18T00:32:35.565Z,101521.69
2018-06-18T00:37:29.852Z,101508.31
2018-06-18T00:42:24.373Z,101502.13
2018-06-18T00:47:19.310Z,101502.73
2018-06-18T00:52:14.709Z,101499.11
2018-06-18T00:57:09.899Z,101501.17
2018-06-18T01:02:04.450Z,101499.14
2018-06-18T01:06:59.053Z,101493.55
2018-06-18T01:11:53.630Z,101494.19
2018-06-18T01:16:49.048Z,101484.23
2018-06-18T01:21:43.724Z,101472.55
2018-06-18T01:26:38.709Z,101479.60
2018-06-18T01:31:33.295Z,101493.73
2018-06-18T01:36:27.914Z,101484.73
2018-06-18T01:41:22.405Z,101484.14
2018-06-18T01:46:17.120Z,101490.47
2018-06-18T01:51:11.600Z,101484.73
2018-06-18T01:56:06.876Z,101491.81
2018-06-18T02:01:01.499Z,101481.10
2018-06-18T02:05:56.297Z,101482.33
2018-06-18T02:10:51.052Z,101492.53
2018-06-18T02:15:45.580Z,101483.89
2018-06-18T02:20:40.242Z,101482.67
2018-06-18T02:25:35.281Z,101478.27
2018-06-18T02:30:35.107Z,101477.44
2018-06-18T02:36:36.426Z,101473.89
2018-06-18T02:41:31.058Z,101470.11
2018-06-18T02:46:25.668Z,101459.52
2018-06-18T02:51:20.370Z,101461.09
2018-06-18T02:56:14.914Z,101474.48
2018-06-18T03:01:09.643Z,101471.33
2018-06-18T03:06:04.547Z,101456.73
2018-06-18T03:10:59.087Z,101473.14
2018-06-18T03:15:53.538Z,101484.35
2018-06-18T03:20:53.253Z,101480.92
2018-06-18T03:25:52.971Z,101479.11
2018-06-18T03:30:47.431Z,101487.14
2018-06-18T03:35:41.901Z,101483.72
2018-06-18T03:40:36.391Z,101485.05
2018-06-18T03:45:33.500Z,101486.05
2018-06-18T03:50:28.479Z,101480.71
2018-06-18T03:55:28.084Z,101483.05
2018-06-18T04:00:23.854Z,101488.92
2018-06-18T04:05:24.713Z,101488.20
2018-06-18T04:10:24.901Z,101490.30
2018-06-18T04:15:19.494Z,101498.10
2018-06-18T04:20:14.162Z,101500.08
2018-06-18T04:25:08.693Z,101499.61
2018-06-18T04:30:03.398Z,101501.94
2018-06-18T04:35:03.108Z,101496.71
2018-06-18T04:39:57.750Z,101498.20
2018-06-18T04:44:57.834Z,101499.91
2018-06-18T04:49:57.688Z,101505.78
2018-06-18T04:54:52.362Z,101499.95
2018-06-18T05:00:25.232Z,101496.95
2018-06-18T05:05:19.720Z,101501.75
2018-06-18T05:10:18.735Z,101507.73
2018-06-18T05:15:13.728Z,101502.88
2018-06-18T05:20:08.221Z,101505.58
2018-06-18T05:25:02.738Z,101511.44
2018-06-18T05:30:00.317Z,101516.58
2018-06-18T05:34:55.260Z,101512.91
2018-06-18T05:39:49.972Z,101516.69
2018-06-18T05:44:44.313Z,101514.28
2018-06-18T05:49:38.938Z,101518.06
2018-06-18T05:54:33.432Z,101521.73
2018-06-18T05:59:27.935Z,101527.09
2018-06-18T06:04:25.000Z,101521.80
2018-06-18T06:09:19.818Z,101513.25
2018-06-18T06:14:14.381Z,101518.11
2018-06-18T06:19:08.829Z,101522.99
2018-06-18T06:24:03.546Z,101523.48
2018-06-18T06:28:58.042Z,101520.63
2018-06-18T06:33:52.671Z,101510.53
2018-06-18T06:38:47.158Z,101525.06
2018-06-18T06:43:41.763Z,101526.14
2018-06-18T06:48:36.924Z,101527.61
2018-06-18T06:53:31.640Z,101528.67
2018-06-18T06:58:26.128Z,101530.47
2018-06-18T07:03:21.018Z,101540.68
2018-06-18T07:08:15.508Z,101550.55
2018-06-18T07:13:10.068Z,101557.58
2018-06-18T07:18:05.162Z,101548.55
2018-06-18T07:22:59.674Z,101556.23
2018-06-18T07:27:54.224Z,101551.75
2018-06-18T07:32:48.710Z,101559.65
2018-06-18T07:37:43.786Z,101555.86
2018-06-18T07:42:38.441Z,101558.92
2018-06-18T07:47:33.146Z,101565.77
2018-06-18T07:52:27.635Z,101574.08
2018-06-18T07:57:22.098Z,101569.94
2018-06-18T08:02:16.621Z,101564.30
2018-06-18T08:07:11.225Z,101557.14
2018-06-18T08:12:05.792Z,101548.52
2018-06-18T08:16:59.987Z,101549.27
2018-06-18T08:21:54.436Z,101549.58
2018-06-18T08:26:49.134Z,101557.62
2018-06-18T08:31:43.790Z,101556.16
2018-06-18T08:36:38.578Z,101562.42
2018-06-18T08:41:33.064Z,101556.56
2018-06-18T08:46:27.646Z,101564.91
2018-06-18T08:51:27.414Z,101561.08
2018-06-18T08:56:27.209Z,101558.93
2018-06-18T09:01:24.977Z,101545.47
2018-06-18T09:06:19.410Z,101553.09
2018-06-18T09:11:13.882Z,101548.34
2018-06-18T09:16:08.430Z,101554.03
2018-06-18T09:21:03.920Z,101542.77
2018-06-18T09:25:58.642Z,101552.42
2018-06-18T09:30:53.818Z,101537.63
2018-06-18T09:35:48.715Z,101546.22
2018-06-18T09:40:43.139Z,101544.97
2018-06-18T09:45:37.625Z,101551.53
2018-06-18T09:50:37.701Z,101548.13
2018-06-18T09:55:37.453Z,101533.05
2018-06-18T10:00:53.273Z,101530.83
2018-06-18T10:05:47.810Z,101537.25
2018-06-18T10:10:42.569Z,101532.45
2018-06-18T10:15:37.494Z,101535.03
2018-06-18T10:20:32.245Z,101528.37
2018-06-18T10:25:27.235Z,101532.97
2018-06-18T10:30:21.925Z,101527.91
2018-06-18T10:35:21.569Z,101529.84
2018-06-18T10:40:21.531Z,101522.84
2018-06-18T10:45:16.174Z,101514.84
2018-06-18T10:50:10.647Z,101511.25
2018-06-18T10:55:05.196Z,101520.98
2018-06-18T10:59:59.971Z,101524.09
2018-06-18T11:04:59.714Z,101524.19
2018-06-18T11:09:54.578Z,101522.95
2018-06-18T11:14:49.220Z,101531.01
2018-06-18T11:19:49.386Z,101531.18
2018-06-18T11:24:49.461Z,101530.72
2018-06-18T11:29:44.245Z,101528.48
2018-06-18T11:34:38.845Z,101530.84
2018-06-18T11:39:33.782Z,101529.13
2018-06-18T11:44:28.605Z,101530.66
2018-06-18T11:49:23.042Z,101535.75
2018-06-18T11:54:17.538Z,101535.75
2018-06-18T11:59:17.411Z,101531.20
2018-06-18T12:04:20.618Z,101526.81
2018-06-18T12:09:20.700Z,101526.79
2018-06-18T12:14:16.324Z,101531.34
2018-06-18T12:19:11.517Z,101530.12
2018-06-18T12:24:06.618Z,101536.34
2018-06-18T12:29:01.616Z,101546.97
2018-06-18T12:33:57.103Z,101551.00
2018-06-18T12:38:52.896Z,101544.12
2018-06-18T12:43:51.688Z,101553.67
2018-06-18T12:48:51.375Z,101545.74
2018-06-18T12:53:51.206Z,101548.28
2018-06-18T12:58:47.313Z,101546.58
2018-06-18T13:03:42.717Z,101542.31
2018-06-18T13:08:37.937Z,101546.15
2018-06-18T13:13:33.400Z,101535.75
2018-06-18T13:18:28.468Z,101550.34
2018-06-18T13:23:23.586Z,101546.42
2018-06-18T13:28:18.465Z,101540.73
2018-06-18T13:33:13.968Z,101538.13
2018-06-18T13:38:14.563Z,101543.25
2018-06-18T13:44:14.516Z,101543.70
2018-06-18T13:49:09.660Z,101548.85
2018-06-18T13:54:04.762Z,101546.64
2018-06-18T13:59:00.478Z,101557.76
2018-06-18T14:03:54.985Z,101561.25
2018-06-18T14:08:49.967Z,101572.81
2018-06-18T14:13:44.631Z,101564.26
2018-06-18T14:18:40.134Z,101562.41
2018-06-18T14:23:34.626Z,101565.50
2018-06-18T14:28:29.354Z,101548.29
2018-06-18T14:33:29.448Z,101554.50
2018-06-18T14:38:29.336Z,101546.26
2018-06-18T14:43:23.824Z,101539.34
2018-06-18T14:48:18.274Z,101536.98
2018-06-18T14:53:12.987Z,101534.59
2018-06-18T14:58:07.437Z,101529.00
2018-06-18T15:03:01.717Z,101523.19
2018-06-18T15:07:56.443Z,101523.47
2018-06-18T15:12:53.743Z,101521.87
2018-06-18T15:17:48.848Z,101521.70
2018-06-18T15:22:47.318Z,101516.17
2018-06-18T15:27:42.658Z,101513.98
2018-06-18T15:32:37.206Z,101502.59
2018-06-18T15:37:32.316Z,101512.95
2018-06-18T15:42:27.322Z,101513.63
2018-06-18T15:47:22.095Z,101506.03
2018-06-18T15:52:17.284Z,101505.91
2018-06-18T15:57:11.866Z,101498.97
2018-06-18T16:02:06.737Z,101488.28
2018-06-18T16:07:02.175Z,101485.74
2018-06-18T16:11:56.977Z,101483.55
2018-06-18T16:16:51.807Z,101481.69
2018-06-18T16:21:46.820Z,101479.30
2018-06-18T16:26:41.269Z,101483.05
2018-06-18T16:31:36.003Z,101473.52
2018-06-18T16:36:30.880Z,101480.33
2018-06-18T16:41:25.578Z,101472.53
2018-06-18T16:46:20.320Z,101476.28
2018-06-18T16:51:14.815Z,101467.75
2018-06-18T16:56:09.311Z,101460.79
2018-06-18T17:01:03.953Z,101469.05
2018-06-18T17:05:59.024Z,101469.98
2018-06-18T17:10:53.432Z,101477.26
2018-06-18T17:15:48.125Z,101477.92
2018-06-18T17:20:42.821Z,101484.66
2018-06-18T17:25:38.048Z,101472.62
2018-06-18T17:30:32.531Z,101484.16
2018-06-18T17:35:27.156Z,101473.61
2018-06-18T17:40:21.835Z,101473.28
2018-06-18T17:45:16.734Z,101463.48
2018-06-18T17:50:11.264Z,101462.55
2018-06-18T17:55:06.075Z,101464.27
2018-06-18T18:00:01.330Z,101457.36
2018-06-18T18:04:57.905Z,101465.02
2018-06-18T18:09:52.715Z,101466.34
2018-06-18T18:14:47.734Z,101480.26
2018-06-18T18:19:42.229Z,101474.40
2018-06-18T18:24:37.259Z,101475.75
2018-06-18T18:29:31.910Z,101484.98
2018-06-18T18:34:26.716Z,101482.98
2018-06-18T18:39:21.758Z,101489.72
2018-06-18T18:44:16.495Z,101484.75
2018-06-18T18:49:11.346Z,101484.30
2018-06-18T18:54:06.444Z,101485.30
2018-06-18T18:59:34.161Z,101491.43
2018-06-18T19:05:01.701Z,101493.15
2018-06-18T19:10:04.149Z,101501.28
2018-06-18T19:14:59.081Z,101506.83
2018-06-18T19:20:07.210Z,101504.94
2018-06-18T19:25:02.364Z,101500.42
2018-06-18T19:29:57.299Z,101495.52
2018-06-18T19:34:52.205Z,101509.83
2018-06-18T19:39:48.389Z,101506.38
2018-06-18T19:44:43.731Z,101516.34
2018-06-18T19:49:38.664Z,101502.12
2018-06-18T19:54:37.743Z,101510.71
2018-06-18T19:59:32.603Z,101520.05
2018-06-18T20:04:27.346Z,101526.53
2018-06-18T20:09:22.437Z,101528.10
2018-06-18T20:14:17.082Z,101539.32
2018-06-18T20:19:11.887Z,101544.84
2018-06-18T20:24:06.676Z,101554.64
2018-06-18T20:29:02.199Z,101565.96
2018-06-18T20:33:59.434Z,101566.34
2018-06-18T20:38:54.619Z,101565.70
2018-06-18T20:44:04.542Z,101576.23
2018-06-18T20:48:59.494Z,101584.91
2018-06-18T20:53:54.468Z,101589.25
2018-06-18T20:58:50.072Z,101592.36
2018-06-18T21:03:45.323Z,101612.81
2018-06-18T21:08:40.023Z,101610.76
2018-06-18T21:13:35.469Z,101614.41
2018-06-18T21:18:30.352Z,101620.03
2018-06-18T21:23:25.420Z,101638.73
2018-06-18T21:28:21.367Z,101627.59
2018-06-18T21:33:17.150Z,101631.15
2018-06-18T21:38:12.126Z,101628.12
2018-06-18T21:43:07.173Z,101630.16
2018-06-18T21:48:02.300Z,101640.30
2018-06-18T21:52:57.713Z,101647.84
2018-06-18T21:57:52.652Z,101641.89
2018-06-18T22:02:47.565Z,101642.84
2018-06-18T22:07:43.911Z,101642.14
2018-06-18T22:12:39.255Z,101635.89
2018-06-18T22:17:34.628Z,101634.95
2018-06-18T22:22:29.224Z,101640.55
2018-06-18T22:27:23.470Z,101645.20
2018-06-18T22:32:17.956Z,101645.44
2018-06-18T22:37:12.964Z,101651.43
2018-06-18T22:42:08.213Z,101651.29
2018-06-18T22:47:03.330Z,101645.45
2018-06-18T22:51:58.601Z,101650.79
2018-06-18T22:56:53.909Z,101658.28
2018-06-18T23:01:49.149Z,101656.00
2018-06-18T23:06:43.916Z,101666.40
2018-06-18T23:11:39.464Z,101662.31
2018-06-18T23:16:37.411Z,101664.91
2018-06-18T23:21:33.533Z,101665.98
2018-06-18T23:26:28.592Z,101662.01
2018-06-18T23:31:24.397Z,101661.56
2018-06-18T23:36:20.640Z,101664.55
2018-06-18T23:41:15.343Z,101672.48
2018-06-18T23:46:09.810Z,101669.06
2018-06-18T23:51:04.580Z,101679.66
2018-06-18T23:55:59.138Z,101675.03
